sensor_id;sensor_type;location;lat;lon;timestamp;temperature;humidity
48744;DHT22;34538;48.836;9.174;2024-01-11T00:00:32;-4.60;99.90
48744;DHT22;34538;48.836;9.174;2024-01-11T00:02:59;-4.60;99.90
48744;DHT22;34538;48.836;9.174;2024-01-11T00:05:24;-4.60;99.90
48744;DHT22;34538;48.836;9.174;2024-01-11T00:07:51;-4.70;99.90
48744;DHT22;34538;48.836;9.174;2024-01-11T00:10:19;-4.70;99.90
48744;DHT22;34538;48.836;9.174;2024-01-11T00:12:47;-4.70;99.90
48744;DHT22;34538;48.836;9.174;2024-01-11T00:15:14;-4.70;99.90
48744;DHT22;34538;48.836;9.174;2024-01-11T00:17:41;-4.70;99.90
48744;DHT22;34538;48.836;9.174;2024-01-11T00:20:09;-4.70;99.90
48744;DHT22;34538;48.836;9.174;2024-01-11T00:22:36;-4.70;99.90
48744;DHT22;34538;48.836;9.174;2024-01-11T00:25:04;-4.80;99.90
48744;DHT22;34538;48.836;9.174;2024-01-11T00:27:31;-4.80;99.90
48744;DHT22;34538;48.836;9.174;2024-01-11T00:29:59;-4.80;99.90
48744;DHT22;34538;48.836;9.174;2024-01-11T00:32:26;-4.80;99.90
48744;DHT22;34538;48.836;9.174;2024-01-11T00:34:53;-4.80;99.90
48744;DHT22;34538;48.836;9.174;2024-01-11T00:37:20;-4.80;99.90
48744;DHT22;34538;48.836;9.174;2024-01-11T00:39:47;-4.80;99.90
48744;DHT22;34538;48.836;9.174;2024-01-11T00:42:14;-4.80;99.90
48744;DHT22;34538;48.836;9.174;2024-01-11T00:44:41;-4.80;99.90
48744;DHT22;34538;48.836;9.174;2024-01-11T00:47:09;-4.90;99.90
48744;DHT22;34538;48.836;9.174;2024-01-11T00:49:36;-4.90;99.90
48744;DHT22;34538;48.836;9.174;2024-01-11T00:52:03;-4.90;99.90
48744;DHT22;34538;48.836;9.174;2024-01-11T00:54:30;-4.90;99.90
48744;DHT22;34538;48.836;9.174;2024-01-11T00:56:57;-5.00;99.90
48744;DHT22;34538;48.836;9.174;2024-01-11T00:59:24;-5.00;99.90
48744;DHT22;34538;48.836;9.174;2024-01-11T01:01:51;-5.00;99.90
48744;DHT22;34538;48.836;9.174;2024-01-11T01:04:19;-5.00;99.90
48744;DHT22;34538;48.836;9.174;2024-01-11T01:06:46;-5.00;99.90
48744;DHT22;34538;48.836;9.174;2024-01-11T01:09:13;-5.00;99.90
48744;DHT22;34538;48.836;9.174;2024-01-11T01:11:40;-5.00;99.90
48744;DHT22;34538;48.836;9.174;2024-01-11T01:14:07;-5.10;99.90
48744;DHT22;34538;48.836;9.174;2024-01-11T01:16:34;-5.00;99.90
48744;DHT22;34538;48.836;9.174;2024-01-11T01:19:01;-5.10;99.90
48744;DHT22;34538;48.836;9.174;2024-01-11T01:21:29;-5.10;99.90
48744;DHT22;34538;48.836;9.174;2024-01-11T01:23:55;-5.10;99.90
48744;DHT22;34538;48.836;9.174;2024-01-11T01:26:22;-5.10;99.90
48744;DHT22;34538;48.836;9.174;2024-01-11T01:28:49;-5.10;99.90
48744;DHT22;34538;48.836;9.174;2024-01-11T01:31:16;-5.10;99.90
48744;DHT22;34538;48.836;9.174;2024-01-11T01:33:43;-5.10;99.90
48744;DHT22;34538;48.836;9.174;2024-01-11T01:36:10;-5.10;99.90
48744;DHT22;34538;48.836;9.174;2024-01-11T01:38:38;-5.20;99.90
48744;DHT22;34538;48.836;9.174;2024-01-11T01:41:04;-5.10;99.90
48744;DHT22;34538;48.836;9.174;2024-01-11T01:43:32;-5.20;99.90
48744;DHT22;34538;48.836;9.174;2024-01-11T01:45:59;-5.20;99.90
48744;DHT22;34538;48.836;9.174;2024-01-11T01:48:27;-5.20;99.90
48744;DHT22;34538;48.836;9.174;2024-01-11T01:50:54;-5.20;99.90
48744;DHT22;34538;48.836;9.174;2024-01-11T01:53:22;-5.10;99.90
48744;DHT22;34538;48.836;9.174;2024-01-11T01:55:52;-5.20;99.90
48744;DHT22;34538;48.836;9.174;2024-01-11T01:58:20;-5.20;99.90
48744;DHT22;34538;48.836;9.174;2024-01-11T02:00:48;-5.20;99.90
48744;DHT22;34538;48.836;9.174;2024-01-11T02:03:16;-5.20;99.90
48744;DHT22;34538;48.836;9.174;2024-01-11T02:05:43;-5.20;99.90
48744;DHT22;34538;48.836;9.174;2024-01-11T02:08:15;-5.20;99.90
48744;DHT22;34538;48.836;9.174;2024-01-11T02:10:42;-5.20;99.90
48744;DHT22;34538;48.836;9.174;2024-01-11T02:13:11;-5.30;99.90
48744;DHT22;34538;48.836;9.174;2024-01-11T02:15:38;-5.30;99.90
48744;DHT22;34538;48.836;9.174;2024-01-11T02:18:05;-5.30;99.90
48744;DHT22;34538;48.836;9.174;2024-01-11T02:20:32;-5.30;99.90
48744;DHT22;34538;48.836;9.174;2024-01-11T02:23:01;-5.30;99.90
48744;DHT22;34538;48.836;9.174;2024-01-11T02:25:31;-5.30;99.90
48744;DHT22;34538;48.836;9.174;2024-01-11T02:27:58;-5.40;99.90
48744;DHT22;34538;48.836;9.174;2024-01-11T02:30:25;-5.40;99.90
48744;DHT22;34538;48.836;9.174;2024-01-11T02:32:53;-5.40;99.90
48744;DHT22;34538;48.836;9.174;2024-01-11T02:35:21;-5.40;99.90
48744;DHT22;34538;48.836;9.174;2024-01-11T02:37:48;-5.40;99.90
48744;DHT22;34538;48.836;9.174;2024-01-11T02:40:15;-5.40;99.90
48744;DHT22;34538;48.836;9.174;2024-01-11T02:42:43;-5.40;99.90
48744;DHT22;34538;48.836;9.174;2024-01-11T02:45:11;-5.50;99.90
48744;DHT22;34538;48.836;9.174;2024-01-11T02:47:38;-5.50;99.90
48744;DHT22;34538;48.836;9.174;2024-01-11T02:50:06;-5.50;99.90
48744;DHT22;34538;48.836;9.174;2024-01-11T02:52:33;-5.50;99.90
48744;DHT22;34538;48.836;9.174;2024-01-11T02:55:00;-5.50;99.90
48744;DHT22;34538;48.836;9.174;2024-01-11T02:57:27;-5.50;99.90
48744;DHT22;34538;48.836;9.174;2024-01-11T02:59:55;-5.50;99.90
48744;DHT22;34538;48.836;9.174;2024-01-11T03:02:22;-5.50;99.90
48744;DHT22;34538;48.836;9.174;2024-01-11T03:04:49;-5.60;99.90
48744;DHT22;34538;48.836;9.174;2024-01-11T03:07:15;-5.60;99.90
48744;DHT22;34538;48.836;9.174;2024-01-11T03:09:42;-5.60;99.90
48744;DHT22;34538;48.836;9.174;2024-01-11T03:12:09;-5.60;99.90
48744;DHT22;34538;48.836;9.174;2024-01-11T03:14:36;-5.70;99.90
48744;DHT22;34538;48.836;9.174;2024-01-11T03:17:04;-5.70;99.90
48744;DHT22;34538;48.836;9.174;2024-01-11T03:19:31;-5.70;99.90
48744;DHT22;34538;48.836;9.174;2024-01-11T03:21:58;-5.70;99.90
48744;DHT22;34538;48.836;9.174;2024-01-11T03:24:28;-5.70;99.90
48744;DHT22;34538;48.836;9.174;2024-01-11T03:26:55;-5.70;99.90
48744;DHT22;34538;48.836;9.174;2024-01-11T03:29:22;-5.70;99.90
48744;DHT22;34538;48.836;9.174;2024-01-11T03:31:49;-5.70;99.90
48744;DHT22;34538;48.836;9.174;2024-01-11T03:34:18;-5.70;99.90
48744;DHT22;34538;48.836;9.174;2024-01-11T03:36:44;-5.70;99.90
48744;DHT22;34538;48.836;9.174;2024-01-11T03:39:11;-5.60;99.90
48744;DHT22;34538;48.836;9.174;2024-01-11T03:41:43;-5.60;99.90
48744;DHT22;34538;48.836;9.174;2024-01-11T03:44:10;-5.60;99.90
48744;DHT22;34538;48.836;9.174;2024-01-11T03:46:37;-5.60;99.90
48744;DHT22;34538;48.836;9.174;2024-01-11T03:49:04;-5.60;99.90
48744;DHT22;34538;48.836;9.174;2024-01-11T03:51:34;-5.60;99.90
48744;DHT22;34538;48.836;9.174;2024-01-11T03:54:01;-5.70;99.90
48744;DHT22;34538;48.836;9.174;2024-01-11T03:56:28;-5.70;99.90
48744;DHT22;34538;48.836;9.174;2024-01-11T03:58:55;-5.70;99.90
48744;DHT22;34538;48.836;9.174;2024-01-11T04:01:22;-5.60;99.90
48744;DHT22;34538;48.836;9.174;2024-01-11T04:03:48;-5.70;99.90
48744;DHT22;34538;48.836;9.174;2024-01-11T04:06:19;-5.60;99.90
48744;DHT22;34538;48.836;9.174;2024-01-11T04:08:49;-5.70;99.90
48744;DHT22;34538;48.836;9.174;2024-01-11T04:11:15;-5.70;99.90
48744;DHT22;34538;48.836;9.174;2024-01-11T04:13:42;-5.70;99.90
48744;DHT22;34538;48.836;9.174;2024-01-11T04:16:09;-5.70;99.90
48744;DHT22;34538;48.836;9.174;2024-01-11T04:18:36;-5.80;99.90
48744;DHT22;34538;48.836;9.174;2024-01-11T04:21:03;-5.80;99.90
48744;DHT22;34538;48.836;9.174;2024-01-11T04:23:30;-5.80;99.90
48744;DHT22;34538;48.836;9.174;2024-01-11T04:25:58;-5.80;99.90
48744;DHT22;34538;48.836;9.174;2024-01-11T04:28:25;-5.80;99.90
48744;DHT22;34538;48.836;9.174;2024-01-11T04:30:52;-5.80;99.90
48744;DHT22;34538;48.836;9.174;2024-01-11T04:33:19;-5.80;99.90
48744;DHT22;34538;48.836;9.174;2024-01-11T04:35:46;-5.80;99.90
48744;DHT22;34538;48.836;9.174;2024-01-11T04:38:12;-5.80;99.90
48744;DHT22;34538;48.836;9.174;2024-01-11T04:40:39;-5.80;99.90
48744;DHT22;34538;48.836;9.174;2024-01-11T04:43:07;-5.90;99.90
48744;DHT22;34538;48.836;9.174;2024-01-11T04:45:35;-5.90;99.90
48744;DHT22;34538;48.836;9.174;2024-01-11T04:48:02;-5.90;99.90
48744;DHT22;34538;48.836;9.174;2024-01-11T04:50:29;-5.80;99.90
48744;DHT22;34538;48.836;9.174;2024-01-11T04:52:55;-5.80;99.90
48744;DHT22;34538;48.836;9.174;2024-01-11T04:55:22;-5.90;99.90
48744;DHT22;34538;48.836;9.174;2024-01-11T04:57:49;-5.90;99.90
48744;DHT22;34538;48.836;9.174;2024-01-11T05:00:18;-5.90;99.90
48744;DHT22;34538;48.836;9.174;2024-01-11T05:02:45;-5.90;99.90
48744;DHT22;34538;48.836;9.174;2024-01-11T05:05:12;-5.90;99.90
48744;DHT22;34538;48.836;9.174;2024-01-11T05:07:39;-5.90;99.90
48744;DHT22;34538;48.836;9.174;2024-01-11T05:10:07;-5.90;99.90
48744;DHT22;34538;48.836;9.174;2024-01-11T05:12:34;-5.90;99.90
48744;DHT22;34538;48.836;9.174;2024-01-11T05:15:02;-5.90;99.90
48744;DHT22;34538;48.836;9.174;2024-01-11T05:17:31;-5.90;99.90
48744;DHT22;34538;48.836;9.174;2024-01-11T05:19:58;-5.90;99.90
48744;DHT22;34538;48.836;9.174;2024-01-11T05:22:25;-5.90;99.90
48744;DHT22;34538;48.836;9.174;2024-01-11T05:24:52;-5.90;99.90
48744;DHT22;34538;48.836;9.174;2024-01-11T05:27:19;-5.90;99.90
48744;DHT22;34538;48.836;9.174;2024-01-11T05:29:45;-5.90;99.90
48744;DHT22;34538;48.836;9.174;2024-01-11T05:32:12;-5.90;99.90
48744;DHT22;34538;48.836;9.174;2024-01-11T05:34:40;-5.90;99.90
48744;DHT22;34538;48.836;9.174;2024-01-11T05:37:07;-5.90;99.90
48744;DHT22;34538;48.836;9.174;2024-01-11T05:39:34;-5.90;99.90
48744;DHT22;34538;48.836;9.174;2024-01-11T05:42:00;-5.90;99.90
48744;DHT22;34538;48.836;9.174;2024-01-11T05:44:28;-5.90;99.90
48744;DHT22;34538;48.836;9.174;2024-01-11T05:46:54;-5.90;99.90
48744;DHT22;34538;48.836;9.174;2024-01-11T05:49:21;-5.90;99.90
48744;DHT22;34538;48.836;9.174;2024-01-11T05:51:49;-5.90;99.90
48744;DHT22;34538;48.836;9.174;2024-01-11T05:54:16;-5.90;99.90
48744;DHT22;34538;48.836;9.174;2024-01-11T05:56:43;-5.90;99.90
48744;DHT22;34538;48.836;9.174;2024-01-11T05:59:10;-5.90;99.90
48744;DHT22;34538;48.836;9.174;2024-01-11T06:01:40;-5.90;99.90
48744;DHT22;34538;48.836;9.174;2024-01-11T06:04:07;-5.90;99.90
48744;DHT22;34538;48.836;9.174;2024-01-11T06:06:34;-5.90;99.90
48744;DHT22;34538;48.836;9.174;2024-01-11T06:09:02;-5.90;99.90
48744;DHT22;34538;48.836;9.174;2024-01-11T06:11:30;-5.90;99.90
48744;DHT22;34538;48.836;9.174;2024-01-11T06:13:57;-5.80;99.90
48744;DHT22;34538;48.836;9.174;2024-01-11T06:16:24;-5.80;99.90
48744;DHT22;34538;48.836;9.174;2024-01-11T06:18:51;-5.80;99.90
48744;DHT22;34538;48.836;9.174;2024-01-11T06:21:17;-5.80;99.90
48744;DHT22;34538;48.836;9.174;2024-01-11T06:23:45;-5.90;99.90
48744;DHT22;34538;48.836;9.174;2024-01-11T06:26:13;-5.90;99.90
48744;DHT22;34538;48.836;9.174;2024-01-11T06:28:40;-5.90;99.90
48744;DHT22;34538;48.836;9.174;2024-01-11T06:31:06;-5.90;99.90
48744;DHT22;34538;48.836;9.174;2024-01-11T06:33:35;-5.90;99.90
48744;DHT22;34538;48.836;9.174;2024-01-11T06:36:04;-5.90;99.90
48744;DHT22;34538;48.836;9.174;2024-01-11T06:38:31;-5.90;99.90
48744;DHT22;34538;48.836;9.174;2024-01-11T06:40:58;-6.00;99.90
48744;DHT22;34538;48.836;9.174;2024-01-11T06:43:26;-5.90;99.90
48744;DHT22;34538;48.836;9.174;2024-01-11T06:45:53;-6.00;99.90
48744;DHT22;34538;48.836;9.174;2024-01-11T06:48:20;-5.90;99.90
48744;DHT22;34538;48.836;9.174;2024-01-11T06:50:46;-5.90;99.90
48744;DHT22;34538;48.836;9.174;2024-01-11T06:53:13;-5.80;99.90
48744;DHT22;34538;48.836;9.174;2024-01-11T06:55:40;-5.80;99.90
48744;DHT22;34538;48.836;9.174;2024-01-11T06:58:08;-5.90;99.90
48744;DHT22;34538;48.836;9.174;2024-01-11T07:00:36;-5.80;99.90
48744;DHT22;34538;48.836;9.174;2024-01-11T07:03:08;-5.80;99.90
48744;DHT22;34538;48.836;9.174;2024-01-11T07:05:35;-5.80;99.90
48744;DHT22;34538;48.836;9.174;2024-01-11T07:08:02;-5.80;99.90
48744;DHT22;34538;48.836;9.174;2024-01-11T07:10:29;-5.70;99.90
48744;DHT22;34538;48.836;9.174;2024-01-11T07:12:57;-5.70;99.90
48744;DHT22;34538;48.836;9.174;2024-01-11T07:15:24;-5.70;99.90
48744;DHT22;34538;48.836;9.174;2024-01-11T07:17:52;-5.60;99.90
48744;DHT22;34538;48.836;9.174;2024-01-11T07:20:20;-5.60;99.90
48744;DHT22;34538;48.836;9.174;2024-01-11T07:22:46;-5.60;99.90
48744;DHT22;34538;48.836;9.174;2024-01-11T07:25:13;-5.60;99.90
48744;DHT22;34538;48.836;9.174;2024-01-11T07:27:40;-5.60;99.90
48744;DHT22;34538;48.836;9.174;2024-01-11T07:30:09;-5.70;99.90
48744;DHT22;34538;48.836;9.174;2024-01-11T07:32:36;-5.70;99.90
48744;DHT22;34538;48.836;9.174;2024-01-11T07:35:05;-5.70;99.90
48744;DHT22;34538;48.836;9.174;2024-01-11T07:37:32;-5.60;99.90
48744;DHT22;34538;48.836;9.174;2024-01-11T07:39:58;-5.60;99.90
48744;DHT22;34538;48.836;9.174;2024-01-11T07:42:25;-5.50;99.90
48744;DHT22;34538;48.836;9.174;2024-01-11T07:44:52;-5.50;99.90
48744;DHT22;34538;48.836;9.174;2024-01-11T07:47:19;-5.50;99.90
48744;DHT22;34538;48.836;9.174;2024-01-11T07:49:45;-5.50;99.90
48744;DHT22;34538;48.836;9.174;2024-01-11T07:52:14;-5.50;99.90
48744;DHT22;34538;48.836;9.174;2024-01-11T07:54:41;-5.50;99.90
48744;DHT22;34538;48.836;9.174;2024-01-11T07:57:08;-5.50;99.90
48744;DHT22;34538;48.836;9.174;2024-01-11T07:59:35;-5.50;99.90
48744;DHT22;34538;48.836;9.174;2024-01-11T08:02:02;-5.40;99.90
48744;DHT22;34538;48.836;9.174;2024-01-11T08:04:29;-5.40;99.90
48744;DHT22;34538;48.836;9.174;2024-01-11T08:06:55;-5.30;99.90
48744;DHT22;34538;48.836;9.174;2024-01-11T08:09:26;-5.30;99.90
48744;DHT22;34538;48.836;9.174;2024-01-11T08:11:53;-5.30;99.90
48744;DHT22;34538;48.836;9.174;2024-01-11T08:14:19;-5.20;99.90
48744;DHT22;34538;48.836;9.174;2024-01-11T08:16:46;-5.20;99.90
48744;DHT22;34538;48.836;9.174;2024-01-11T08:19:13;-5.10;99.90
48744;DHT22;34538;48.836;9.174;2024-01-11T08:21:40;-5.10;99.90
48744;DHT22;34538;48.836;9.174;2024-01-11T08:24:07;-5.00;99.90
48744;DHT22;34538;48.836;9.174;2024-01-11T08:26:36;-5.00;99.90
48744;DHT22;34538;48.836;9.174;2024-01-11T08:29:03;-4.90;99.90
48744;DHT22;34538;48.836;9.174;2024-01-11T08:31:30;-4.80;99.90
48744;DHT22;34538;48.836;9.174;2024-01-11T08:33:58;-4.80;99.90
48744;DHT22;34538;48.836;9.174;2024-01-11T08:36:25;-4.70;99.90
48744;DHT22;34538;48.836;9.174;2024-01-11T08:38:56;-4.70;99.90
48744;DHT22;34538;48.836;9.174;2024-01-11T08:41:23;-4.50;99.90
48744;DHT22;34538;48.836;9.174;2024-01-11T08:43:51;-4.50;99.90
48744;DHT22;34538;48.836;9.174;2024-01-11T08:46:23;-4.40;99.90
48744;DHT22;34538;48.836;9.174;2024-01-11T08:48:51;-4.40;99.90
48744;DHT22;34538;48.836;9.174;2024-01-11T08:51:17;-4.30;99.90
48744;DHT22;34538;48.836;9.174;2024-01-11T08:53:44;-4.20;99.90
48744;DHT22;34538;48.836;9.174;2024-01-11T08:56:11;-4.20;99.90
48744;DHT22;34538;48.836;9.174;2024-01-11T08:58:39;-4.10;99.90
48744;DHT22;34538;48.836;9.174;2024-01-11T09:01:08;-4.10;99.90
48744;DHT22;34538;48.836;9.174;2024-01-11T09:03:34;-4.00;99.90
48744;DHT22;34538;48.836;9.174;2024-01-11T09:06:02;-3.90;99.90
48744;DHT22;34538;48.836;9.174;2024-01-11T09:08:29;-3.90;99.90
48744;DHT22;34538;48.836;9.174;2024-01-11T09:10:56;-3.80;99.90
48744;DHT22;34538;48.836;9.174;2024-01-11T09:13:24;-3.80;99.90
48744;DHT22;34538;48.836;9.174;2024-01-11T09:15:51;-3.70;99.90
48744;DHT22;34538;48.836;9.174;2024-01-11T09:18:20;-3.60;99.90
48744;DHT22;34538;48.836;9.174;2024-01-11T09:20:47;-3.60;99.90
48744;DHT22;34538;48.836;9.174;2024-01-11T09:23:15;-3.50;99.90
48744;DHT22;34538;48.836;9.174;2024-01-11T09:25:43;-3.40;99.90
48744;DHT22;34538;48.836;9.174;2024-01-11T09:28:10;-3.50;99.90
48744;DHT22;34538;48.836;9.174;2024-01-11T09:30:37;-3.40;99.90
48744;DHT22;34538;48.836;9.174;2024-01-11T09:33:04;-3.40;99.90
48744;DHT22;34538;48.836;9.174;2024-01-11T09:35:33;-3.30;99.90
48744;DHT22;34538;48.836;9.174;2024-01-11T09:37:59;-3.20;99.90
48744;DHT22;34538;48.836;9.174;2024-01-11T09:40:26;-3.20;99.90
48744;DHT22;34538;48.836;9.174;2024-01-11T09:42:53;-3.20;99.90
48744;DHT22;34538;48.836;9.174;2024-01-11T09:45:20;-3.10;99.90
48744;DHT22;34538;48.836;9.174;2024-01-11T09:47:49;-3.10;99.90
48744;DHT22;34538;48.836;9.174;2024-01-11T09:50:17;-3.00;99.90
48744;DHT22;34538;48.836;9.174;2024-01-11T09:52:47;-3.00;99.90
48744;DHT22;34538;48.836;9.174;2024-01-11T09:55:14;-2.90;99.90
48744;DHT22;34538;48.836;9.174;2024-01-11T09:57:44;-2.90;99.90
48744;DHT22;34538;48.836;9.174;2024-01-11T10:00:13;-2.80;99.90
48744;DHT22;34538;48.836;9.174;2024-01-11T10:02:44;-2.80;99.90
48744;DHT22;34538;48.836;9.174;2024-01-11T10:05:11;-2.70;99.90
48744;DHT22;34538;48.836;9.174;2024-01-11T10:07:39;-2.70;99.90
48744;DHT22;34538;48.836;9.174;2024-01-11T10:10:08;-2.60;99.90
48744;DHT22;34538;48.836;9.174;2024-01-11T10:12:36;-2.60;99.90
48744;DHT22;34538;48.836;9.174;2024-01-11T10:15:06;-2.60;99.90
48744;DHT22;34538;48.836;9.174;2024-01-11T10:17:35;-2.50;99.90
48744;DHT22;34538;48.836;9.174;2024-01-11T10:20:02;-2.50;99.90
48744;DHT22;34538;48.836;9.174;2024-01-11T10:22:30;-2.40;99.90
48744;DHT22;34538;48.836;9.174;2024-01-11T10:25:11;-2.30;99.90
48744;DHT22;34538;48.836;9.174;2024-01-11T10:27:39;-2.30;99.90
48744;DHT22;34538;48.836;9.174;2024-01-11T10:30:07;-2.30;99.90
48744;DHT22;34538;48.836;9.174;2024-01-11T10:32:34;-2.20;99.90
48744;DHT22;34538;48.836;9.174;2024-01-11T10:35:01;-2.20;99.90
48744;DHT22;34538;48.836;9.174;2024-01-11T10:37:30;-2.10;99.90
48744;DHT22;34538;48.836;9.174;2024-01-11T10:39:58;-2.00;99.90
48744;DHT22;34538;48.836;9.174;2024-01-11T10:42:31;-2.00;99.90
48744;DHT22;34538;48.836;9.174;2024-01-11T10:44:59;-1.90;99.90
48744;DHT22;34538;48.836;9.174;2024-01-11T10:47:30;-1.90;99.90
48744;DHT22;34538;48.836;9.174;2024-01-11T10:50:00;-1.80;99.90
48744;DHT22;34538;48.836;9.174;2024-01-11T10:52:36;-1.80;99.90
48744;DHT22;34538;48.836;9.174;2024-01-11T10:55:03;-1.70;99.90
48744;DHT22;34538;48.836;9.174;2024-01-11T10:57:32;-1.70;99.90
48744;DHT22;34538;48.836;9.174;2024-01-11T11:00:01;-1.60;99.90
48744;DHT22;34538;48.836;9.174;2024-01-11T11:02:32;-1.60;99.90
48744;DHT22;34538;48.836;9.174;2024-01-11T11:05:01;-1.50;99.90
48744;DHT22;34538;48.836;9.174;2024-01-11T11:07:30;-1.50;99.90
48744;DHT22;34538;48.836;9.174;2024-01-11T11:09:57;-1.40;99.90
48744;DHT22;34538;48.836;9.174;2024-01-11T11:12:25;-1.40;99.90
48744;DHT22;34538;48.836;9.174;2024-01-11T11:14:54;-1.30;99.90
48744;DHT22;34538;48.836;9.174;2024-01-11T11:17:21;-1.20;99.90
48744;DHT22;34538;48.836;9.174;2024-01-11T11:19:48;-1.20;99.90
48744;DHT22;34538;48.836;9.174;2024-01-11T11:22:14;-1.10;99.90
48744;DHT22;34538;48.836;9.174;2024-01-11T11:24:43;-1.10;99.90
48744;DHT22;34538;48.836;9.174;2024-01-11T11:27:13;-1.00;99.90
48744;DHT22;34538;48.836;9.174;2024-01-11T11:29:41;-1.00;99.90
48744;DHT22;34538;48.836;9.174;2024-01-11T11:32:10;-1.00;99.90
48744;DHT22;34538;48.836;9.174;2024-01-11T11:34:41;-1.00;99.90
48744;DHT22;34538;48.836;9.174;2024-01-11T11:37:10;-0.90;99.90
48744;DHT22;34538;48.836;9.174;2024-01-11T11:39:37;-0.90;99.90
48744;DHT22;34538;48.836;9.174;2024-01-11T11:42:04;-0.80;99.90
48744;DHT22;34538;48.836;9.174;2024-01-11T11:44:32;-0.80;99.90
48744;DHT22;34538;48.836;9.174;2024-01-11T11:47:19;-0.70;99.90
48744;DHT22;34538;48.836;9.174;2024-01-11T11:50:06;-0.60;99.90
48744;DHT22;34538;48.836;9.174;2024-01-11T11:52:34;-0.60;99.90
48744;DHT22;34538;48.836;9.174;2024-01-11T11:55:02;-0.50;99.90
48744;DHT22;34538;48.836;9.174;2024-01-11T11:57:29;-0.50;99.90
48744;DHT22;34538;48.836;9.174;2024-01-11T11:59:56;-0.40;99.90
48744;DHT22;34538;48.836;9.174;2024-01-11T12:02:26;-0.40;99.90
48744;DHT22;34538;48.836;9.174;2024-01-11T12:04:53;-0.40;99.90
48744;DHT22;34538;48.836;9.174;2024-01-11T12:07:20;-0.40;99.90
48744;DHT22;34538;48.836;9.174;2024-01-11T12:09:48;-0.30;99.90
48744;DHT22;34538;48.836;9.174;2024-01-11T12:12:16;-0.30;99.90
48744;DHT22;34538;48.836;9.174;2024-01-11T12:14:43;-0.20;99.90
48744;DHT22;34538;48.836;9.174;2024-01-11T12:17:11;-0.20;99.90
48744;DHT22;34538;48.836;9.174;2024-01-11T12:19:40;-0.20;99.90
48744;DHT22;34538;48.836;9.174;2024-01-11T12:22:07;-0.10;99.90
48744;DHT22;34538;48.836;9.174;2024-01-11T12:24:34;-0.10;99.90
48744;DHT22;34538;48.836;9.174;2024-01-11T12:27:02;-0.10;99.90
48744;DHT22;34538;48.836;9.174;2024-01-11T12:29:29;-0.10;99.90
48744;DHT22;34538;48.836;9.174;2024-01-11T12:31:57;0.00;99.90
48744;DHT22;34538;48.836;9.174;2024-01-11T12:34:24;0.00;99.90
48744;DHT22;34538;48.836;9.174;2024-01-11T12:36:53;0.10;99.90
48744;DHT22;34538;48.836;9.174;2024-01-11T12:39:20;0.10;99.90
48744;DHT22;34538;48.836;9.174;2024-01-11T12:41:49;0.10;99.90
48744;DHT22;34538;48.836;9.174;2024-01-11T12:44:17;0.20;99.90
48744;DHT22;34538;48.836;9.174;2024-01-11T12:46:47;0.20;99.90
48744;DHT22;34538;48.836;9.174;2024-01-11T12:49:15;0.20;99.90
48744;DHT22;34538;48.836;9.174;2024-01-11T12:51:41;0.30;99.90
48744;DHT22;34538;48.836;9.174;2024-01-11T12:54:12;0.30;99.90
48744;DHT22;34538;48.836;9.174;2024-01-11T12:56:42;0.30;99.90
48744;DHT22;34538;48.836;9.174;2024-01-11T12:59:10;0.40;99.90
48744;DHT22;34538;48.836;9.174;2024-01-11T13:01:38;0.40;99.90
48744;DHT22;34538;48.836;9.174;2024-01-11T13:04:07;0.40;99.90
48744;DHT22;34538;48.836;9.174;2024-01-11T13:06:34;0.40;99.90
48744;DHT22;34538;48.836;9.174;2024-01-11T13:09:01;0.40;99.90
48744;DHT22;34538;48.836;9.174;2024-01-11T13:11:30;0.40;99.90
48744;DHT22;34538;48.836;9.174;2024-01-11T13:13:58;0.40;99.90
48744;DHT22;34538;48.836;9.174;2024-01-11T13:16:26;0.50;99.90
48744;DHT22;34538;48.836;9.174;2024-01-11T13:18:53;0.50;99.90
48744;DHT22;34538;48.836;9.174;2024-01-11T13:21:20;0.50;99.90
48744;DHT22;34538;48.836;9.174;2024-01-11T13:23:46;0.50;99.90
48744;DHT22;34538;48.836;9.174;2024-01-11T13:26:13;0.50;99.90
48744;DHT22;34538;48.836;9.174;2024-01-11T13:28:42;0.50;99.90
48744;DHT22;34538;48.836;9.174;2024-01-11T13:31:08;0.50;99.90
48744;DHT22;34538;48.836;9.174;2024-01-11T13:33:37;0.50;99.90
48744;DHT22;34538;48.836;9.174;2024-01-11T13:36:05;0.60;99.90
48744;DHT22;34538;48.836;9.174;2024-01-11T13:38:33;0.60;99.90
48744;DHT22;34538;48.836;9.174;2024-01-11T13:41:00;0.60;99.90
48744;DHT22;34538;48.836;9.174;2024-01-11T13:43:26;0.60;99.90
48744;DHT22;34538;48.836;9.174;2024-01-11T13:45:54;0.60;99.90
48744;DHT22;34538;48.836;9.174;2024-01-11T13:48:21;0.60;99.90
48744;DHT22;34538;48.836;9.174;2024-01-11T13:50:48;0.60;99.90
48744;DHT22;34538;48.836;9.174;2024-01-11T13:53:15;0.60;99.90
48744;DHT22;34538;48.836;9.174;2024-01-11T13:55:42;0.60;99.90
48744;DHT22;34538;48.836;9.174;2024-01-11T13:58:09;0.60;99.90
48744;DHT22;34538;48.836;9.174;2024-01-11T14:00:38;0.60;99.90
48744;DHT22;34538;48.836;9.174;2024-01-11T14:03:06;0.60;99.90
48744;DHT22;34538;48.836;9.174;2024-01-11T14:05:34;0.60;99.90
48744;DHT22;34538;48.836;9.174;2024-01-11T14:08:01;0.60;99.90
48744;DHT22;34538;48.836;9.174;2024-01-11T14:10:31;0.60;99.90
48744;DHT22;34538;48.836;9.174;2024-01-11T14:13:00;0.60;99.90
48744;DHT22;34538;48.836;9.174;2024-01-11T14:15:27;0.60;99.90
48744;DHT22;34538;48.836;9.174;2024-01-11T14:17:54;0.50;99.90
48744;DHT22;34538;48.836;9.174;2024-01-11T14:20:22;0.50;99.90
48744;DHT22;34538;48.836;9.174;2024-01-11T14:22:49;0.50;99.90
48744;DHT22;34538;48.836;9.174;2024-01-11T14:25:18;0.50;99.90
48744;DHT22;34538;48.836;9.174;2024-01-11T14:27:47;0.50;99.90
48744;DHT22;34538;48.836;9.174;2024-01-11T14:30:14;0.50;99.90
48744;DHT22;34538;48.836;9.174;2024-01-11T14:32:41;0.50;99.90
48744;DHT22;34538;48.836;9.174;2024-01-11T14:35:08;0.50;99.90
48744;DHT22;34538;48.836;9.174;2024-01-11T14:37:38;0.50;99.90
48744;DHT22;34538;48.836;9.174;2024-01-11T14:40:06;0.50;99.90
48744;DHT22;34538;48.836;9.174;2024-01-11T14:42:33;0.50;99.90
48744;DHT22;34538;48.836;9.174;2024-01-11T14:44:59;0.50;99.90
48744;DHT22;34538;48.836;9.174;2024-01-11T14:47:26;0.50;99.90
48744;DHT22;34538;48.836;9.174;2024-01-11T14:49:53;0.40;99.90
48744;DHT22;34538;48.836;9.174;2024-01-11T14:52:20;0.40;99.90
48744;DHT22;34538;48.836;9.174;2024-01-11T14:54:48;0.40;99.90
48744;DHT22;34538;48.836;9.174;2024-01-11T14:57:15;0.30;99.90
48744;DHT22;34538;48.836;9.174;2024-01-11T14:59:42;0.30;99.90
48744;DHT22;34538;48.836;9.174;2024-01-11T15:02:09;0.30;99.90
48744;DHT22;34538;48.836;9.174;2024-01-11T15:04:36;0.30;99.90
48744;DHT22;34538;48.836;9.174;2024-01-11T15:07:03;0.30;99.90
48744;DHT22;34538;48.836;9.174;2024-01-11T15:09:30;0.30;99.90
48744;DHT22;34538;48.836;9.174;2024-01-11T15:11:58;0.20;99.90
48744;DHT22;34538;48.836;9.174;2024-01-11T15:14:26;0.20;99.90
48744;DHT22;34538;48.836;9.174;2024-01-11T15:16:52;0.20;99.90
48744;DHT22;34538;48.836;9.174;2024-01-11T15:19:19;0.10;99.90
48744;DHT22;34538;48.836;9.174;2024-01-11T15:21:46;0.10;99.90
48744;DHT22;34538;48.836;9.174;2024-01-11T15:24:13;0.00;99.90
48744;DHT22;34538;48.836;9.174;2024-01-11T15:26:40;0.00;99.90
48744;DHT22;34538;48.836;9.174;2024-01-11T15:29:09;0.00;99.90
48744;DHT22;34538;48.836;9.174;2024-01-11T15:31:35;0.00;99.90
48744;DHT22;34538;48.836;9.174;2024-01-11T15:34:05;-0.10;99.90
48744;DHT22;34538;48.836;9.174;2024-01-11T15:36:33;-0.10;99.90